INFORMACIÓN METAR y TAF
METAR FOR ENBR
ADDS - METARS form results

(1226 UTC 26 November 2020)
Data provider http://aviationweather.gov/metar/data/
 
METAR text: ENBR 261220Z 02002KT 9999 FEW004 BKN025 05/04 Q1017 NOSIG RMK WIND 1200FT 04003KT
Conditions at: ENBR (BERGEN/FLESLAND , NO) observed 1220 UTC 26 November 2020
Temperature: 5.0°C (41°F)
Dewpoint: 4.0°C (39°F) [RH = 93%]
Pressure (altimeter): 30.03 inches Hg (1017.0 mb)
Winds: from the NNE (20 degrees) at 2 MPH (2 knots; 1.0 m/s)
Visibility: 6 or more miles (10+ km)
Ceiling: 2500 feet AGL
Clouds: few clouds at 400 feet AGL
broken clouds at 2500 feet AGL
Weather: no significant weather observed at this time

METAR text: ENBR 261150Z 00000KT 9999 FEW004 BKN025 05/04 Q1017 RMK WIND 1200FT 02006KT
Conditions at: ENBR (BERGEN/FLESLAND , NO) observed 1150 UTC 26 November 2020
Temperature: 5.0°C (41°F)
Dewpoint: 4.0°C (39°F) [RH = 93%]
Pressure (altimeter): 30.03 inches Hg (1017.0 mb)
Winds: calm
Visibility: 6 or more miles (10+ km)
Ceiling: 2500 feet AGL
Clouds: few clouds at 400 feet AGL
broken clouds at 2500 feet AGL
Weather: no significant weather observed at this time

Forecast for: ENBR (BERGEN/FLESLAND , NO)
Text: TAF ENBR 2612/2712 VRB05KT 9999 FEW010 SCT020
Forecast period: 1200 UTC 26 November 2020 to 1200 UTC 27 November 2020
Forecast type: FROM: standard forecast or significant change
Winds: variable direction winds at 6 MPH (5 knots; 2.6 m/s)
Visibility: 6 or more miles (10+ km)
Ceiling: at least 12,000 feet AGL
Clouds: few clouds at 1000 feet AGL
scattered clouds at 2000 feet AGL
Weather: no significant weather forecast for this period

 MAPA DE AEROPUERTO

 INFORMACIÓN DE PISTA
Pista 17 Longitud 9810 ft Ancho 148 ft
Elevación 165 ft Umbral desplazado 886 ft Rumbo de pista 171
Pista 35 Longitud 9810 ft Ancho 148 ft
Elevación 146 ft Umbral desplazado 889 ft Rumbo de pista 351

 FRECUANCIAS DEL AEROPUERTO
Tipo APP Nombre RADAR Frecuencia 121 MHZ
Tipo ARR Nombre ARR Frecuencia 125 MHZ
Tipo ATIS Nombre ATIS Frecuencia 125.25 MHZ
Tipo DIR Nombre DIRECTOR Frecuencia 118.85 MHZ
Tipo GND Nombre GND Frecuencia 121.9 MHZ
Tipo TWR Nombre TWR Frecuencia 119.1 MHZ

 RADIO AYUDAS DEL AEROPUERTO
Tipo NDB Nombre Askoy Frecuencia 360 KHZ
Tipo NDB Nombre Bratta Frecuencia 336 KHZ
Tipo TACAN Nombre Flesland Frecuencia 114500 KHZ
Tipo VOR-DME Nombre Flesland Frecuencia 115550 KHZ
Tipo VOR-DME Nombre Vollo Frecuencia 114850 KHZ



Powered by Virtual Airlines Manager [v2.6.2]